Miami, Oklahoma
Current Conditions -  °F | °C
As of 3:15 PM on Sunday 23 Nov 2014 (Local Time) from KGMJ Reporting Station
Overcast Overcast  
Wind Chill: 68°   Ceiling: 3500
Heat Index: 68°   Visibility: 10mi
Dew Point: 54°   Wind: 5mph
Humidity: 60%   Direction: 290°WNW
Pressure: 29.29"   Gusts: NA
Location:  36.87°N, 94.88°W
Report Text: KGMJ 232115Z AUTO 29004KT 10SM BKN035 BKN045 OVC070 20/12 A2929 RMK AO2
Loading
Personal Weather Stations






























Interactive Weather Map New forecast layout! Learn more

10-Day Weather Forecast

Advertisements
Track Severe Weather on mobile